createdAt,value
2019-04-21T00:03:42.890Z,58.7
2019-04-21T00:13:32.227Z,58.87
2019-04-21T00:18:17.036Z,59.28
2019-04-21T00:24:15.924Z,60.78
2019-04-21T00:29:03.328Z,66.22
2019-04-21T00:33:37.070Z,68.48
2019-04-21T00:39:59.875Z,70.76
2019-04-21T00:43:27.826Z,72.09
2019-04-21T00:47:50.859Z,72.38
2019-04-21T00:52:59.185Z,72.36
2019-04-21T00:58:59.118Z,72.59
2019-04-21T01:02:29.088Z,75.3
2019-04-21T01:07:26.411Z,72.4
2019-04-21T01:12:41.435Z,66.64
2019-04-21T01:17:27.203Z,65.02
2019-04-21T01:22:06.529Z,64.74
2019-04-21T01:32:34.170Z,63.9
2019-04-21T01:36:23.100Z,64.19
2019-04-21T01:42:55.482Z,65.44
2019-04-21T01:46:19.034Z,65.44
2019-04-21T01:52:17.442Z,65.29
2019-04-21T01:56:23.659Z,65.96
2019-04-21T02:00:37.734Z,66.24
2019-04-21T02:05:30.969Z,65.84
2019-04-21T02:10:34.103Z,65.3
2019-04-21T02:15:55.351Z,65.96
2019-04-21T02:25:19.617Z,66.96
2019-04-21T02:41:30.445Z,67.13
2019-04-21T02:49:44.702Z,67.77
2019-04-21T03:00:23.545Z,70
2019-04-21T03:04:27.825Z,71.27
2019-04-21T03:13:38.963Z,71.91
2019-04-21T03:20:41.895Z,71.13
2019-04-21T03:38:36.481Z,70.93
2019-04-21T03:45:23.115Z,70.85
2019-04-21T03:50:25.986Z,71.17
2019-04-21T03:57:55.224Z,72.08
2019-04-21T04:07:41.743Z,72.37
2019-04-21T04:12:34.144Z,73.21
2019-04-21T04:18:03.555Z,74.15
2019-04-21T04:23:19.947Z,73.91
2019-04-21T04:27:14.411Z,74.36
2019-04-21T04:32:03.066Z,75.07
2019-04-21T04:46:43.613Z,77.54
2019-04-21T04:51:32.829Z,79.38
2019-04-21T05:01:40.276Z,81.02
2019-04-21T05:10:47.119Z,76.8
2019-04-21T05:16:09.603Z,71.43
2019-04-21T05:21:23.039Z,63.07
2019-04-21T05:25:22.797Z,60.14
2019-04-21T05:35:26.220Z,56.64
2019-04-21T05:41:09.899Z,56.47
2019-04-21T05:49:49.604Z,56.18
2019-04-21T05:54:29.194Z,53.61
2019-04-21T05:59:52.989Z,52.09
2019-04-21T06:09:18.843Z,51.49
2019-04-21T06:14:29.176Z,49.26
2019-04-21T06:23:56.796Z,50.57
2019-04-21T06:28:33.257Z,48.98
2019-04-21T06:35:05.979Z,50.55
2019-04-21T06:38:42.971Z,52.28
2019-04-21T06:44:07.299Z,52.29
2019-04-21T06:49:42.591Z,50.03
2019-04-21T06:53:29.047Z,49.74
2019-04-21T06:57:28.320Z,49.12
2019-04-21T07:07:27.282Z,47.81
2019-04-21T07:12:27.368Z,46.99
2019-04-21T07:17:27.772Z,43.88
2019-04-21T07:22:54.000Z,44.8
2019-04-21T07:27:28.752Z,43.22
2019-04-21T07:33:00.758Z,44.57
2019-04-21T07:36:57.689Z,42.67
2019-04-21T07:41:18.189Z,41.42
2019-04-21T07:46:38.361Z,39.73
2019-04-21T07:51:24.680Z,39.4
2019-04-21T07:56:41.680Z,40.42
2019-04-21T08:01:30.338Z,39.34
2019-04-21T08:06:45.910Z,37.61
2019-04-21T08:15:26.406Z,37
2019-04-21T08:20:23.871Z,39.07
2019-04-21T08:31:55.733Z,34.71
2019-04-21T08:36:26.998Z,35.77
2019-04-21T08:40:31.373Z,34.13
2019-04-21T08:49:26.082Z,35.18
2019-04-21T08:54:26.262Z,33.03
2019-04-21T09:09:46.587Z,31.47
2019-04-21T09:18:32.305Z,31.6
2019-04-21T09:23:25.378Z,30.72
2019-04-21T09:28:34.213Z,30.84
2019-04-21T09:33:09.180Z,28.78
2019-04-21T09:38:42.362Z,30.08
2019-04-21T09:42:09.169Z,31.25
2019-04-21T09:43:13.055Z,31.25
2019-04-21T09:47:10.553Z,29.37
2019-04-21T09:52:23.694Z,30.07
2019-04-21T09:57:46.430Z,30.11
2019-04-21T10:02:14.128Z,30.55
2019-04-21T10:07:06.890Z,28.94
2019-04-21T10:12:07.763Z,32.04
2019-04-21T10:16:07.644Z,29.26
2019-04-21T10:21:09.969Z,29.52
2019-04-21T10:26:06.790Z,28.63
2019-04-21T10:31:06.813Z,29.11
2019-04-21T10:36:06.836Z,27.33
2019-04-21T10:41:09.901Z,26.33
2019-04-21T10:46:06.996Z,28.09
2019-04-21T10:50:07.092Z,28.82
2019-04-21T10:55:20.534Z,27.75
2019-04-21T11:00:12.400Z,28.85
2019-04-21T11:05:09.402Z,30.84
2019-04-21T11:10:09.626Z,29.99
2019-04-21T11:15:07.534Z,29.47
2019-04-21T11:20:06.645Z,30.14
2019-04-21T11:24:06.513Z,27.78
2019-04-21T11:29:07.649Z,29.35
2019-04-21T11:34:09.536Z,29.89
2019-04-21T11:39:31.496Z,30.36
2019-04-21T11:44:06.127Z,28.44
2019-04-21T11:49:08.723Z,28.31
2019-04-21T11:54:07.235Z,27.4
2019-04-21T11:58:08.058Z,28.47
2019-04-21T12:03:06.095Z,27.42
2019-04-21T12:08:27.086Z,29.87
2019-04-21T12:13:09.742Z,26.97
2019-04-21T12:18:08.472Z,27.52
2019-04-21T12:22:21.234Z,26.99
2019-04-21T12:23:06.784Z,26.99
2019-04-21T12:27:07.772Z,27.47
2019-04-21T12:32:07.910Z,27.73
2019-04-21T12:37:07.104Z,29.26
2019-04-21T12:42:06.777Z,27.45
2019-04-21T12:47:07.913Z,26.25
2019-04-21T12:52:06.791Z,24.84
2019-04-21T12:57:07.636Z,26.64
2019-04-21T13:01:07.093Z,25.37
2019-04-21T13:06:07.572Z,25.15
2019-04-21T13:11:11.077Z,26.47
2019-04-21T13:16:07.672Z,24.77
2019-04-21T13:21:07.598Z,25.64
2019-04-21T13:26:09.625Z,26.68
2019-04-21T13:31:08.913Z,25.44
2019-04-21T13:35:06.658Z,26.43
2019-04-21T13:40:48.498Z,24.82
2019-04-21T13:45:13.909Z,23.35
2019-04-21T13:50:11.043Z,23.8
2019-04-21T13:55:11.687Z,23.27
2019-04-21T14:00:09.691Z,24
2019-04-21T14:05:11.520Z,24.13
2019-04-21T14:09:09.760Z,25.6
2019-04-21T14:14:08.593Z,25.48
2019-04-21T14:19:09.972Z,24.01
2019-04-21T14:24:07.120Z,22.44
2019-04-21T14:29:08.126Z,22.93
2019-04-21T14:34:08.301Z,24.17
2019-04-21T14:39:10.203Z,24.22
2019-04-21T14:43:08.435Z,24.63
2019-04-21T14:48:07.583Z,25.04
2019-04-21T14:53:09.786Z,23.83
2019-04-21T14:58:07.327Z,23.21
2019-04-21T15:03:07.641Z,23.84
2019-04-21T15:08:06.850Z,25.89
2019-04-21T15:13:06.063Z,23.96
2019-04-21T15:17:07.071Z,22.74
2019-04-21T15:22:06.663Z,24.27
2019-04-21T15:27:07.144Z,24.18
2019-04-21T15:32:06.578Z,24.6
2019-04-21T15:37:06.117Z,24.2
2019-04-21T15:42:08.729Z,23.68
2019-04-21T15:47:08.467Z,25.92
2019-04-21T15:52:10.046Z,24.9
2019-04-21T15:56:06.646Z,23.81
2019-04-21T16:01:07.301Z,25.38
2019-04-21T16:06:08.002Z,23.91
2019-04-21T16:11:11.174Z,25.24
2019-04-21T16:16:08.348Z,25.75
2019-04-21T16:21:08.258Z,27.13
2019-04-21T16:25:06.723Z,27.44
2019-04-21T16:30:08.017Z,26.34
2019-04-21T16:35:10.177Z,26.32
2019-04-21T16:40:07.428Z,26.41
2019-04-21T16:45:07.394Z,28.01
2019-04-21T16:50:07.615Z,27.46
2019-04-21T16:55:06.529Z,28
2019-04-21T16:59:06.469Z,28.4
2019-04-21T17:04:06.672Z,29.22
2019-04-21T17:09:08.465Z,29.41
2019-04-21T17:14:17.427Z,30.17
2019-04-21T17:19:14.379Z,30.17
2019-04-21T17:24:06.577Z,30.47
2019-04-21T17:29:06.866Z,31.37
2019-04-21T17:33:09.967Z,31.45
2019-04-21T17:38:06.394Z,31.6
2019-04-21T17:43:10.445Z,31.91
2019-04-21T17:48:11.080Z,33.34
2019-04-21T17:53:10.238Z,34.37
2019-04-21T17:59:50.478Z,34.71
2019-04-21T18:02:58.719Z,36.17
2019-04-21T18:07:46.289Z,36.97
2019-04-21T18:12:22.483Z,37.99
2019-04-21T18:17:06.942Z,41.3
2019-04-21T18:22:08.916Z,42.82
2019-04-21T18:27:11.345Z,44.33
2019-04-21T18:32:08.326Z,47.01
2019-04-21T18:36:13.338Z,45.49
2019-04-21T18:41:10.238Z,41.91
2019-04-21T18:46:25.689Z,40.63
2019-04-21T18:51:16.968Z,42.48
2019-04-21T18:56:09.612Z,44.93
2019-04-21T19:01:22.325Z,43.62
2019-04-21T19:06:09.720Z,43.66
2019-04-21T19:11:23.539Z,47.17
2019-04-21T19:15:58.579Z,46.62
2019-04-21T19:20:25.004Z,46.33
2019-04-21T19:25:20.469Z,47.59
2019-04-21T19:30:28.079Z,48.8
2019-04-21T19:35:07.768Z,49.93
2019-04-21T19:40:19.921Z,50.64
2019-04-21T19:45:21.993Z,52
2019-04-21T19:49:26.531Z,53.07
2019-04-21T19:54:29.840Z,53.78
2019-04-21T19:59:07.636Z,52.75
2019-04-21T20:04:08.785Z,51.54
2019-04-21T20:09:21.663Z,51.84
2019-04-21T20:15:03.187Z,51.77
2019-04-21T20:19:13.626Z,51.82
2019-04-21T20:23:12.998Z,51.51
2019-04-21T20:28:33.007Z,50.97
2019-04-21T20:38:18.891Z,50.62
2019-04-21T20:43:24.892Z,50.61
2019-04-21T20:48:15.874Z,51.8
2019-04-21T20:53:19.461Z,52.93
2019-04-21T20:57:39.696Z,53.96
2019-04-21T21:02:19.880Z,53.93
2019-04-21T21:07:34.285Z,53.73
2019-04-21T21:12:27.405Z,53.77
2019-04-21T21:18:05.670Z,54.02
2019-04-21T21:22:36.393Z,54.14
2019-04-21T21:27:36.563Z,54.84
2019-04-21T21:32:49.191Z,58.86
2019-04-21T21:37:36.056Z,57.07
2019-04-21T21:41:45.024Z,55.94
2019-04-21T21:46:43.957Z,54.15
2019-04-21T21:51:15.340Z,54.31
2019-04-21T21:56:06.960Z,55.18
2019-04-21T22:01:20.611Z,57
2019-04-21T22:06:19.612Z,56.44
2019-04-21T22:10:08.092Z,55.99
2019-04-21T22:15:10.729Z,55.06
2019-04-21T22:21:23.023Z,55.09
2019-04-21T22:25:36.849Z,54.89
2019-04-21T22:30:33.191Z,54.8
2019-04-21T22:35:09.621Z,54.86
2019-04-21T22:40:16.534Z,55.96
2019-04-21T22:44:07.862Z,57.65
2019-04-21T22:49:09.222Z,59.4
2019-04-21T22:54:12.008Z,61.17
2019-04-21T22:59:26.100Z,62.39
2019-04-21T23:04:13.981Z,62.68
2019-04-21T23:09:07.116Z,61.58
2019-04-21T23:14:18.612Z,62.03
2019-04-21T23:20:22.308Z,59.29
2019-04-21T23:23:28.227Z,57.23
2019-04-21T23:28:20.731Z,57.21
2019-04-21T23:33:10.780Z,54.6
2019-04-21T23:38:08.355Z,53.34
2019-04-21T23:43:29.236Z,53.28
2019-04-21T23:49:12.073Z,53.2
2019-04-21T23:53:08.701Z,53.55
2019-04-21T23:58:13.130Z,53.81
